Terminal Aerodrome Forecast
Issued by NWS

Home | Current Version | Previous Version | Text Only | Print | Product List | Glossary On
Versions: 1 2 3 4 5 6 7 8 9 10 11 12 13 14 15 16 17 18 19 20 21 22 23 24 25 26 27 28 29 30 31 32 33 34
000
FTUS42 KGSP 280529
TAFHKY
TAF
KHKY 280529Z 2806/2906 00000KT P6SM BKN050
     FM280900 00000KT 4SM BR BKN040
      TEMPO 2810/2813 1 1/2SM BR SCT015 BKN025
     FM281300 20003KT 6SM BR BKN012
     FM281500 20003KT P6SM BKN045
     FM281900 17006KT P6SM BKN070 PROB30 2819/2823 4SM TSRA
      BKN040CB=

USA.gov is the U.S. government's official web portal to all federal, state and local government web resources and services.